Almaty, Kazakhstan
Current Conditions -  °F | °C
As of 6:30 PM on Thursday 30 Oct 2014 (Local Time) from UAAA Reporting Station
Haze Haze  
Wind Chill: 32°   Ceiling: 900
Heat Index: 32°   Visibility: 1.3mi
Dew Point: 27°   Wind: 2mph
Humidity: 80%   Direction: 20°NNE
Pressure: 30.56"   Gusts: NA
Location:  43.32°N, 76.92°E
Report Text: UAAA 301230Z 02001MPS 2200 BR OVC009 M00/M03 Q1035 R88/CLRD65NOSIG
Loading
Personal Weather Stations






























Interactive Weather Map
Tropical Storm Tracking
New forecast layout! Learn more

10-Day Weather Forecast

Advertisements
Track Severe Weather on mobile